• Join FlightAware (Why Join?)
  • Login
  • US Flag 
06:30PM EDT


 

Airport Tracker/Info


-or-


 

Live Flight TrackerFlight Track Log ✈ FFT403 ✈ 07-May-2013 ✈ KDEN - KLAX

Flight Track Log - Related Links

Times and Time Zones

All times are in EDT time to prevent confusion due to time zone crossing. See the FFT403 flight status page for this flight to view local times or setup timezone preferences in your user account.

Time Position Orientation Groundspeed Altitude Reporting Facility
EDT Latitude Longitude Course Direction KTS MPH feet Rate Location/Type
10:54AM 39.8333 -104.7667 252° West 181 208 7,000  Level Denver TRACON
10:55AM 39.8167 -104.8333 252° West 242 278 7,800 1,020 Climbing Denver TRACON
10:56AM 39.8025 -104.8969 254° West 262 302 8,700 1,920 Climbing Denver Center
10:57AM 39.7756 -104.9967 251° West 288 331 11,000 1,860 Climbing Denver Center
10:58AM 39.7392 -105.1022 246° West 324 373 12,600 1,920 Climbing Denver Center
10:59AM 39.6967 -105.2225 245° Southwest 339 390 15,000 1,980 Climbing Denver Center
11:00AM 39.6550 -105.3375 245° Southwest 352 405 16,700 1,740 Climbing Denver Center
11:01AM 39.6092 -105.4656 245° Southwest 366 421 18,700 1,620 Climbing Denver Center
11:02AM 39.5642 -105.5856 244° Southwest 370 426 20,100 1,620 Climbing Denver Center
11:03AM 39.5217 -105.7228 248° West 380 437 22,100 1,740 Climbing Denver Center
11:04AM 39.4889 -105.8467 251° West 373 429 23,700 1,320 Climbing Denver Center
11:05AM 39.4533 -105.9775 251° West 380 437 24,900 1,440 Climbing Denver Center
11:06AM 39.4161 -106.1108 250° West 389 448 26,700 1,740 Climbing Denver Center
11:07AM 39.3769 -106.2503 250° West 377 434 28,500 1,260 Climbing Denver Center
11:08AM 39.3369 -106.3919 250° West 377 434 29,400 660 Climbing Denver Center
11:09AM 39.2911 -106.5139 244° Southwest 391 450 29,900 480 Climbing Denver Center
11:10AM 39.2333 -106.6325 238° Southwest 406 467 30,400 480 Climbing Denver Center
11:11AM 39.1664 -106.7772 239° Southwest 419 482 31,000 1,020 Climbing Denver Center
11:12AM 39.1072 -106.9031 239° Southwest 427 491 32,600 1,200 Climbing Denver Center
11:13AM 39.0431 -107.0389 239° Southwest 402 463 33,600 1,020 Climbing Denver Center
11:14AM 38.9872 -107.1556 238° Southwest 400 460 34,800 780 Climbing Denver Center
11:15AM 38.9228 -107.2906 238° Southwest 398 458 35,300 480 Climbing Denver Center
11:16AM 38.8681 -107.4033 238° Southwest 390 449 35,800 300 Climbing Denver Center
11:17AM 38.8039 -107.5378 239° Southwest 394 453 36,000 60 Climbing Denver Center
11:18AM 38.7556 -107.6375 238° Southwest 403 464 36,000  Level Denver Center
11:19AM 38.6800 -107.7922 238° Southwest 403 464 36,000  Level Denver Center
11:20AM 38.6242 -107.9069 238° Southwest 398 458 36,000  Level Denver Center
11:21AM 38.5683 -108.0214 238° Southwest 395 455 36,000  Level Denver Center
11:22AM 38.5039 -108.1533 238° Southwest 393 452 36,000  Level Denver Center
11:24AM 38.4469 -108.2706 238° Southwest 400 460 36,000  Level Denver Center
11:25AM 38.3828 -108.4011 238° Southwest 392 451 36,000  Level Denver Center
11:26AM 38.3267 -108.5133 238° Southwest 391 450 36,000  Level Denver Center
11:27AM 38.2608 -108.6450 238° Southwest 392 451 36,000  Level Denver Center
11:28AM 38.2053 -108.7561 238° Southwest 388 447 36,000  Level Denver Center
11:29AM 38.1397 -108.8864 237° Southwest 390 449 36,000  Level Denver Center
11:30AM 38.0839 -108.9956 237° Southwest 387 445 36,000  Level Denver Center
11:31AM 38.0253 -109.1128 238° Southwest 388 447 36,000  Level Denver Center
11:32AM 37.9592 -109.2414 237° Southwest 391 450 36,100  Climbing Denver Center
11:33AM 37.9042 -109.3517 238° Southwest 388 447 36,000 -60 Descending Denver Center
11:34AM 37.8386 -109.4786 237° Southwest 385 443 36,000  Level Denver Center
11:35AM 37.7836 -109.5844 237° Southwest 379 436 36,000  Level Denver Center
11:36AM 37.7189 -109.7100 237° Southwest 381 438 36,000  Level Denver Center
11:37AM 37.6628 -109.8194 237° Southwest 385 443 36,000  Level Denver Center
11:38AM 37.5972 -109.9461 237° Southwest 387 445 36,000  Level Denver Center
11:39AM 37.5419 -110.0519 237° Southwest 381 438 36,000  Level Denver Center
11:40AM 37.4769 -110.1761 237° Southwest 379 436 36,000  Level Denver Center
11:41AM 37.4244 -110.2764 237° Southwest 378 435 36,000  Level Denver Center
11:42AM 37.3664 -110.3869 237° Southwest 378 435 36,000  Level Denver Center
11:43AM 37.3086 -110.4975 237° Southwest 378 435 36,000  Level Denver Center
11:44AM 37.2392 -110.6286 236° Southwest 377 434 36,000  Level Denver Center
11:45AM 37.1819 -110.7358 236° Southwest 370 426 36,000  Level Denver Center
11:46AM 37.1242 -110.8447 236° Southwest 374 430 36,000  Level Denver Center
11:47AM 37.0664 -110.9542 237° Southwest 377 434 36,000  Level Denver Center
11:48AM 37.0067 -111.0636 236° Southwest 380 437 36,100  Climbing Denver Center
11:49AM 36.9472 -111.1747 236° Southwest 383 441 36,000 -60 Descending Denver Center
11:50AM 36.8778 -111.3036 236° Southwest 374 430 36,000  Level Denver Center
11:51AM 36.8206 -111.4128 237° Southwest 374 430 36,000  Level Denver Center
11:52AM 36.7611 -111.5203 235° Southwest 376 433 36,000  Level Denver Center
11:53AM 36.7031 -111.6267 236° Southwest 373 429 36,000  Level Denver Center
11:55AM 36.6439 -111.7339 236° Southwest 373 429 36,000  Level Denver Center
11:56AM 36.5847 -111.8406 235° Southwest 373 429 36,000 60 Level Denver Center
11:56AM 36.5589 -111.8858 235° Southwest 375 432 36,100  Climbing Los Angeles Center
11:57AM 36.4981 -112.0169 240° Southwest 367 422 36,000 -60 Descending Los Angeles Center
11:58AM 36.4500 -112.1275 242° Southwest 364 419 36,000  Level Los Angeles Center
11:59AM 36.4106 -112.2178 242° Southwest 368 423 36,000  Level Los Angeles Center
12:00PM 36.3519 -112.3531 242° Southwest 371 427 36,100  Climbing Los Angeles Center
12:01PM 36.3017 -112.4658 241° Southwest 373 429 36,100 -60 Level Los Angeles Center
12:02PM 36.2528 -112.5781 242° Southwest 370 426 36,000 -60 Descending Los Angeles Center
12:03PM 36.2033 -112.6892 241° Southwest 367 422 36,000  Level Los Angeles Center
12:04PM 36.1333 -112.8453 241° Southwest 369 425 36,000  Level Los Angeles Center
12:05PM 36.0847 -112.9558 241° Southwest 368 423 36,000  Level Los Angeles Center
12:06PM 36.0347 -113.0678 241° Southwest 369 425 36,000  Level Los Angeles Center
12:08PM 35.9850 -113.1794 241° Southwest 370 426 36,000  Level Los Angeles Center
12:09PM 35.9294 -113.2992 240° Southwest 382 440 36,000  Level Los Angeles Center
12:10PM 35.8786 -113.4125 241° Southwest 382 440 36,000  Level Los Angeles Center
12:11PM 35.8275 -113.5261 241° Southwest 384 442 36,000  Level Los Angeles Center
12:12PM 35.7736 -113.6453 241° Southwest 385 443 36,100  Climbing Los Angeles Center
12:13PM 35.7100 -113.7806 240° Southwest 381 438 36,000 -60 Descending Los Angeles Center
12:14PM 35.6633 -113.8853 241° Southwest 377 434 36,000  Level Los Angeles Center
12:15PM 35.6117 -113.9958 240° Southwest 376 433 36,000  Level Los Angeles Center
12:16PM 35.5606 -114.1081 241° Southwest 377 434 36,000  Level Los Angeles Center
12:17PM 35.5186 -114.1972 240° Southwest 379 436 36,000  Level Los Angeles Center
12:18PM 35.4511 -114.3433 240° Southwest 380 437 36,000  Level Los Angeles Center
12:19PM 35.3978 -114.4586 240° Southwest 386 444 36,000  Level Los Angeles Center
12:20PM 35.3331 -114.5958 240° Southwest 385 443 36,000  Level Los Angeles Center
12:21PM 35.2781 -114.7103 240° Southwest 389 448 36,000  Level Los Angeles Center
12:22PM 35.2244 -114.8239 240° Southwest 385 443 36,000  Level Los Angeles Center
12:23PM 35.1717 -114.9364 240° Southwest 382 440 36,000  Level Los Angeles Center
12:24PM 35.1175 -115.0500 240° Southwest 382 440 36,000  Level Los Angeles Center
12:25PM 35.0639 -115.1644 240° Southwest 386 444 36,000 -60 Level Los Angeles Center
12:26PM 35.0025 -115.2906 239° Southwest 381 438 35,900 -360 Descending Los Angeles Center
12:27PM 34.9483 -115.4019 239° Southwest 381 438 35,300 -660 Descending Los Angeles Center
12:28PM 34.8942 -115.5167 240° Southwest 370 426 34,600 -720 Descending Los Angeles Center
12:29PM 34.8458 -115.6172 240° Southwest 369 425 33,900 -660 Descending Los Angeles Center
12:30PM 34.7947 -115.7214 239° Southwest 362 417 33,300 -660 Descending Los Angeles Center
12:31PM 34.7433 -115.8278 240° Southwest 364 419 32,600 -780 Descending Los Angeles Center
12:32PM 34.6797 -115.9572 239° Southwest 370 426 31,800 -780 Descending Los Angeles Center
12:33PM 34.6281 -116.0656 240° Southwest 371 427 31,100 -720 Descending Los Angeles Center
12:34PM 34.5736 -116.1736 239° Southwest 373 429 30,400 -540 Descending Los Angeles Center
12:35PM 34.5181 -116.2831 238° Southwest 378 435 30,000 -240 Descending Los Angeles Center
12:36PM 34.4658 -116.3925 240° Southwest 377 434 30,000  Level Los Angeles Center
12:37PM 34.4114 -116.4997 238° Southwest 374 430 30,000 -180 Level Los Angeles Center
12:38PM 34.3586 -116.6078 239° Southwest 373 429 29,700 -1,320 Descending Los Angeles Center
12:40PM 34.2953 -116.7353 239° Southwest 371 427 27,300 -2,280 Descending Los Angeles Center
12:41PM 34.2425 -116.8383 238° Southwest 366 421 25,000 -2,040 Descending Los Angeles Center
12:42PM 34.1919 -116.9406 239° Southwest 359 413 23,100 -2,280 Descending Los Angeles Center
12:43PM 34.1408 -117.0411 238° Southwest 354 407 20,400 -2,580 Descending Los Angeles Center
12:43PM 34.1167 -117.0833 235° Southwest 350 403 19,700 -2,040 Descending Southern California TRACON
12:44PM 34.0833 -117.1667 244° Southwest 342 394 18,000 -1,740 Descending Southern California TRACON
12:45PM 34.0500 -117.2833 251° West 354 407 16,400 -1,740 Descending Southern California TRACON
12:46PM 34.0333 -117.4000 260° West 350 403 14,600 -1,440 Descending Southern California TRACON
12:47PM 34.0333 -117.5000 270° West 306 352 13,600 -960 Descending Southern California TRACON
12:48PM 34.0333 -117.6000 270° West 287 330 12,700 -1,380 Descending Southern California TRACON
12:49PM 34.0167 -117.7000 259° West 263 303 10,900 -1,740 Descending Southern California TRACON
12:50PM 34.0167 -117.8000 270° West 275 316 9,300 -1,560 Descending Southern California TRACON
12:51PM 34.0000 -117.8833 256° West 280 322 7,800 -1,200 Descending Southern California TRACON
12:52PM 34.0000 -117.9833 270° West 249 287 6,800 -1,020 Descending Southern California TRACON
12:53PM 33.9833 -118.0500 253° West 243 280 5,800 -1,080 Descending Southern California TRACON
12:54PM 33.9833 -118.1333 270° West 210 242 4,800 -1,200 Descending Southern California TRACON
12:55PM 33.9667 -118.2000 253° West 202 232 3,300 -1,200 Descending Southern California TRACON
12:56PM 33.9667 -118.2667 270° West 203 234 2,300 -1,020 Descending Southern California TRACON
12:57PM 33.9667 -118.3333 270° West 186 214 1,400 -1,020 Descending Southern California TRACON
12:57PM 33.9583 -118.3492 238° Southwest 187 215 1,000 -840 Descending Los Angeles Center
12:58PM 33.9528 -118.3978 262° West 161 185 200 -780 Descending Los Angeles Center
01:00PM 33.9333 -118.4000 259° West  Level FlightAware Approximate
01:07PM 33.9425 -118.4081 259° West  Level Estimated